createdAt,value
2018-06-19T00:01:48.435Z,101670.00
2018-06-19T00:06:41.739Z,101673.00
2018-06-19T00:11:34.972Z,101665.00
2018-06-19T00:16:28.257Z,101666.00
2018-06-19T00:21:27.903Z,101675.00
2018-06-19T00:26:21.157Z,101676.00
2018-06-19T00:31:14.508Z,101669.00
2018-06-19T00:36:07.779Z,101673.00
2018-06-19T00:41:01.084Z,101673.00
2018-06-19T00:45:54.505Z,101662.00
2018-06-19T00:50:47.788Z,101642.00
2018-06-19T00:55:41.060Z,101654.00
2018-06-19T01:00:34.333Z,101654.00
2018-06-19T01:05:27.586Z,101649.00
2018-06-19T01:10:20.888Z,101661.00
2018-06-19T01:15:14.733Z,101668.00
2018-06-19T01:20:08.118Z,101679.00
2018-06-19T01:25:01.385Z,101674.00
2018-06-19T01:29:54.662Z,101670.00
2018-06-19T01:34:47.991Z,101671.00
2018-06-19T01:39:41.241Z,101669.00
2018-06-19T01:44:34.514Z,101661.00
2018-06-19T01:49:27.786Z,101675.00
2018-06-19T01:54:21.058Z,101677.00
2018-06-19T01:59:14.357Z,101672.00
2018-06-19T02:04:07.625Z,101679.00
2018-06-19T02:09:00.903Z,101678.00
2018-06-19T02:13:54.149Z,101671.00
2018-06-19T02:18:47.473Z,101668.00
2018-06-19T02:23:40.734Z,101676.00
2018-06-19T02:28:33.983Z,101674.00
2018-06-19T02:33:27.240Z,101689.00
2018-06-19T02:38:20.553Z,101691.00
2018-06-19T02:43:13.979Z,101685.00
2018-06-19T02:48:07.278Z,101700.00
2018-06-19T02:53:00.545Z,101700.00
2018-06-19T02:57:53.805Z,101703.00
2018-06-19T03:02:47.109Z,101712.00
2018-06-19T03:07:40.372Z,101722.00
2018-06-19T03:12:33.636Z,101717.00
2018-06-19T03:17:26.889Z,101732.00
2018-06-19T03:22:20.177Z,101729.00
2018-06-19T03:27:13.424Z,101729.00
2018-06-19T03:32:06.762Z,101730.00
2018-06-19T03:37:00.093Z,101734.00
2018-06-19T03:41:53.397Z,101739.00
2018-06-19T03:46:46.676Z,101745.00
2018-06-19T03:51:39.941Z,101741.00
2018-06-19T03:56:33.226Z,101748.00
2018-06-19T04:01:26.526Z,101746.00
2018-06-19T04:06:19.799Z,101742.00
2018-06-19T04:11:13.060Z,101747.00
2018-06-19T04:16:06.426Z,101760.00
2018-06-19T04:20:59.708Z,101759.00
2018-06-19T04:25:52.964Z,101783.00
2018-06-19T04:30:46.228Z,101773.00
2018-06-19T04:35:39.480Z,101773.00
2018-06-19T04:40:32.768Z,101780.00
2018-06-19T04:45:26.083Z,101780.00
2018-06-19T04:50:19.323Z,101789.00
2018-06-19T04:55:12.663Z,101794.00
2018-06-19T05:00:06.016Z,101789.00
2018-06-19T05:04:59.249Z,101787.00
2018-06-19T05:09:52.478Z,101794.00
2018-06-19T05:14:45.696Z,101797.00
2018-06-19T05:19:38.938Z,101800.00
2018-06-19T05:24:32.193Z,101798.00
2018-06-19T05:29:25.468Z,101796.00
2018-06-19T05:34:18.725Z,101791.00
2018-06-19T05:39:11.997Z,101783.00
2018-06-19T05:44:05.896Z,101782.00
2018-06-19T05:48:59.229Z,101783.00
2018-06-19T05:53:52.505Z,101788.00
2018-06-19T05:58:45.817Z,101794.00
2018-06-19T06:03:39.066Z,101790.00
2018-06-19T06:08:32.373Z,101801.00
2018-06-19T06:13:25.676Z,101799.00
2018-06-19T06:18:19.066Z,101792.00
2018-06-19T06:23:12.392Z,101799.00
2018-06-19T06:28:05.680Z,101797.00
2018-06-19T06:32:58.970Z,101799.00
2018-06-19T06:37:52.320Z,101808.00
2018-06-19T06:42:45.601Z,101812.00
2018-06-19T06:47:38.889Z,101810.00
2018-06-19T06:52:32.473Z,101812.00
2018-06-19T06:57:25.722Z,101811.00
2018-06-19T07:02:18.950Z,101806.00
2018-06-19T07:07:12.273Z,101805.00
2018-06-19T07:12:05.872Z,101811.00
2018-06-19T07:16:59.093Z,101807.00
2018-06-19T07:21:52.370Z,101815.00
2018-06-19T07:26:45.716Z,101823.00
2018-06-19T07:31:39.022Z,101827.00
2018-06-19T07:36:32.300Z,101824.00
2018-06-19T07:41:25.527Z,101831.00
2018-06-19T07:46:18.780Z,101828.00
2018-06-19T07:51:12.039Z,101836.00
2018-06-19T07:56:05.456Z,101834.00
2018-06-19T08:00:58.722Z,101837.00
2018-06-19T08:05:52.472Z,101841.00
2018-06-19T08:10:45.717Z,101851.00
2018-06-19T08:15:39.232Z,101851.00
2018-06-19T08:20:32.475Z,101853.00
2018-06-19T08:25:25.709Z,101851.00
2018-06-19T08:30:18.976Z,101856.00
2018-06-19T08:35:12.270Z,101853.00
2018-06-19T08:40:05.611Z,101857.00
2018-06-19T08:44:58.922Z,101865.00
2018-06-19T08:49:52.282Z,101862.00
2018-06-19T08:54:45.519Z,101871.00
2018-06-19T08:59:38.771Z,101876.00
2018-06-19T09:04:32.179Z,101881.00
2018-06-19T09:09:25.456Z,101879.00
2018-06-19T09:14:18.701Z,101878.00
2018-06-19T09:24:08.784Z,101880.00
2018-06-19T09:29:02.028Z,101886.00
2018-06-19T09:33:55.179Z,101884.00
2018-06-19T09:38:49.337Z,101887.00
2018-06-19T09:43:42.687Z,101880.00
2018-06-19T09:48:35.933Z,101880.00
2018-06-19T09:53:29.681Z,101886.00
2018-06-19T09:58:23.183Z,101888.00
2018-06-19T10:03:16.562Z,101887.00
2018-06-19T10:08:09.842Z,101883.00
2018-06-19T10:13:03.164Z,101879.00
2018-06-19T10:17:56.423Z,101884.00
2018-06-19T10:22:49.629Z,101889.00
2018-06-19T10:27:42.974Z,101899.00
2018-06-19T10:32:36.281Z,101897.00
2018-06-19T10:37:30.106Z,101893.00
2018-06-19T10:42:23.828Z,101895.00
2018-06-19T10:47:17.880Z,101902.00
2018-06-19T10:52:11.149Z,101908.00
2018-06-19T10:57:04.532Z,101911.00
2018-06-19T11:01:57.812Z,101902.00
2018-06-19T11:06:51.072Z,101899.00
2018-06-19T11:11:44.336Z,101899.00
2018-06-19T11:16:37.648Z,101897.00
2018-06-19T11:21:31.093Z,101896.00
2018-06-19T11:26:24.402Z,101904.00
2018-06-19T11:31:17.806Z,101907.00
2018-06-19T11:36:11.060Z,101907.00
2018-06-19T11:41:04.347Z,101909.00
2018-06-19T11:45:57.498Z,101904.00
2018-06-19T11:50:50.762Z,101898.00
2018-06-19T11:55:44.015Z,101898.00
2018-06-19T12:00:37.276Z,101894.00
2018-06-19T12:05:30.619Z,101894.00
2018-06-19T12:10:23.907Z,101894.00
2018-06-19T12:15:17.249Z,101886.00
2018-06-19T12:20:10.533Z,101887.00
2018-06-19T12:25:04.130Z,101883.00
2018-06-19T12:29:57.508Z,101886.00
2018-06-19T12:34:50.726Z,101884.00
2018-06-19T12:39:43.971Z,101886.00
2018-06-19T12:44:37.284Z,101889.00
2018-06-19T12:49:47.615Z,101889.00
2018-06-19T12:55:56.714Z,101890.00
2018-06-19T13:00:50.021Z,101894.00
2018-06-19T13:06:00.404Z,101907.00
2018-06-19T13:10:53.663Z,101903.00
2018-06-19T13:15:46.925Z,101900.00
2018-06-19T13:20:48.043Z,101900.00
2018-06-19T13:25:41.632Z,101895.00
2018-06-19T13:30:51.842Z,101897.00
2018-06-19T13:35:45.129Z,101893.00
2018-06-19T13:41:23.090Z,101895.00
2018-06-19T13:46:16.354Z,101897.00
2018-06-19T13:51:10.260Z,101905.00
2018-06-19T13:57:23.312Z,101903.00
2018-06-19T14:02:17.119Z,101903.00
2018-06-19T14:07:10.406Z,101894.00
2018-06-19T14:12:23.805Z,101896.00
2018-06-19T14:17:17.056Z,101893.00
2018-06-19T14:22:10.530Z,101889.00
2018-06-19T14:27:03.808Z,101887.00
2018-06-19T14:31:57.164Z,101876.00
2018-06-19T14:36:50.686Z,101877.00
2018-06-19T14:41:43.955Z,101879.00
2018-06-19T14:46:37.227Z,101882.00
2018-06-19T14:51:30.393Z,101881.00
2018-06-19T14:56:23.695Z,101878.00
2018-06-19T15:01:16.976Z,101880.00
2018-06-19T15:06:10.238Z,101881.00
2018-06-19T15:11:06.440Z,101878.00
2018-06-19T15:15:59.690Z,101879.00
2018-06-19T15:20:53.033Z,101875.00
2018-06-19T15:25:46.291Z,101871.00
2018-06-19T15:30:39.618Z,101874.00
2018-06-19T15:35:32.894Z,101876.00
2018-06-19T15:40:26.238Z,101878.00
2018-06-19T15:45:19.497Z,101872.00
2018-06-19T15:50:12.675Z,101866.00
2018-06-19T15:55:05.961Z,101865.00
2018-06-19T15:59:59.252Z,101858.00
2018-06-19T16:04:52.530Z,101856.00
2018-06-19T16:09:45.817Z,101860.00
2018-06-19T16:14:39.130Z,101856.00
2018-06-19T16:19:32.820Z,101852.00
2018-06-19T16:24:26.178Z,101849.00
2018-06-19T16:29:19.488Z,101849.00
2018-06-19T16:34:12.814Z,101846.00
2018-06-19T16:39:08.702Z,101846.00
2018-06-19T16:44:01.870Z,101854.00
2018-06-19T16:48:55.244Z,101847.00
2018-06-19T16:53:48.574Z,101844.00
2018-06-19T16:58:43.489Z,101844.00
2018-06-19T17:03:36.762Z,101845.00
2018-06-19T17:08:30.183Z,101847.00
2018-06-19T17:13:23.429Z,101843.00
2018-06-19T17:18:16.667Z,101840.00
2018-06-19T17:23:09.926Z,101845.00
2018-06-19T17:28:03.210Z,101839.00
2018-06-19T17:32:56.555Z,101844.00
2018-06-19T17:37:49.904Z,101840.00
2018-06-19T17:42:43.197Z,101833.00
2018-06-19T17:47:36.463Z,101839.00
2018-06-19T17:52:29.733Z,101833.00
2018-06-19T17:57:23.063Z,101837.00
2018-06-19T18:02:16.317Z,101832.00
2018-06-19T18:07:09.620Z,101834.00
2018-06-19T18:12:02.937Z,101834.00
2018-06-19T18:16:56.264Z,101828.00
2018-06-19T18:21:49.574Z,101835.00
2018-06-19T18:26:42.853Z,101838.00
2018-06-19T18:31:36.162Z,101830.00
2018-06-19T18:36:29.399Z,101830.00
2018-06-19T18:41:22.761Z,101827.00
2018-06-19T18:46:16.027Z,101833.00
2018-06-19T18:51:09.330Z,101829.00
2018-06-19T18:56:02.589Z,101833.00
2018-06-19T19:00:55.862Z,101840.00
2018-06-19T19:05:49.193Z,101839.00
2018-06-19T19:10:51.047Z,101836.00
2018-06-19T19:15:49.903Z,101836.00
2018-06-19T19:20:43.221Z,101841.00
2018-06-19T19:25:36.509Z,101840.00
2018-06-19T19:30:29.827Z,101835.00
2018-06-19T19:35:23.186Z,101830.00
2018-06-19T19:40:16.452Z,101832.00
2018-06-19T19:45:09.853Z,101834.00
2018-06-19T19:50:03.218Z,101839.00
2018-06-19T19:54:56.465Z,101847.00
2018-06-19T19:59:49.794Z,101849.00
2018-06-19T20:04:43.100Z,101852.00
2018-06-19T20:09:36.329Z,101857.00
2018-06-19T20:14:29.497Z,101861.00
2018-06-19T20:19:22.649Z,101860.00
2018-06-19T20:24:15.878Z,101863.00
2018-06-19T20:29:09.713Z,101869.00
2018-06-19T20:34:03.138Z,101867.00
2018-06-19T20:38:56.470Z,101871.00
2018-06-19T20:43:49.764Z,101870.00
2018-06-19T20:48:42.960Z,101871.00
2018-06-19T20:53:36.259Z,101879.00
2018-06-19T20:58:29.439Z,101882.00
2018-06-19T21:03:22.712Z,101877.00
2018-06-19T21:08:16.357Z,101879.00
2018-06-19T21:13:09.649Z,101875.00
2018-06-19T21:18:02.968Z,101877.00
2018-06-19T21:22:56.238Z,101879.00
2018-06-19T21:27:49.517Z,101871.00
2018-06-19T21:32:42.804Z,101871.00
2018-06-19T21:37:36.176Z,101868.00
2018-06-19T21:42:29.438Z,101868.00
2018-06-19T21:47:22.726Z,101872.00
2018-06-19T21:52:15.978Z,101872.00
2018-06-19T21:57:09.260Z,101871.00
2018-06-19T22:02:02.499Z,101855.00
2018-06-19T22:06:55.760Z,101870.00
2018-06-19T22:11:49.018Z,101867.00
2018-06-19T22:16:42.180Z,101866.00
2018-06-19T22:21:35.433Z,101865.00
2018-06-19T22:26:28.689Z,101859.00
2018-06-19T22:31:22.286Z,101863.00
2018-06-19T22:36:15.643Z,101868.00
2018-06-19T22:41:08.925Z,101865.00
2018-06-19T22:46:02.180Z,101865.00
2018-06-19T22:50:55.456Z,101866.00
2018-06-19T22:55:48.782Z,101866.00
2018-06-19T23:00:42.053Z,101872.00
2018-06-19T23:05:36.296Z,101870.00
2018-06-19T23:10:30.070Z,101867.00
2018-06-19T23:15:23.558Z,101866.00
2018-06-19T23:20:16.838Z,101868.00
2018-06-19T23:25:11.071Z,101864.00
2018-06-19T23:30:04.469Z,101858.00
2018-06-19T23:34:57.767Z,101864.00
2018-06-19T23:39:51.482Z,101861.00
2018-06-19T23:44:44.740Z,101854.00
2018-06-19T23:49:38.039Z,101849.00
2018-06-19T23:54:31.289Z,101841.00
2018-06-19T23:59:24.572Z,101843.00
